createdAt,value
2023-02-02T00:01:32.503Z,76564.50
2023-02-02T00:04:00.184Z,76556.41
2023-02-02T00:06:29.534Z,76562.50
2023-02-02T00:08:58.649Z,76556.41
2023-02-02T00:11:26.161Z,76548.31
2023-02-02T00:13:54.590Z,76560.47
2023-02-02T00:16:30.751Z,76554.38
2023-02-02T00:19:04.256Z,76564.50
2023-02-02T00:21:31.279Z,76560.47
2023-02-02T00:23:58.473Z,76556.41
2023-02-02T00:26:25.971Z,76556.41
2023-02-02T00:28:53.320Z,76552.34
2023-02-02T00:31:20.345Z,76552.34
2023-02-02T00:33:49.013Z,76556.41
2023-02-02T00:36:17.147Z,76552.34
2023-02-02T00:38:44.821Z,76550.31
2023-02-02T00:41:11.762Z,76548.31
2023-02-02T00:43:38.999Z,76544.25
2023-02-02T00:46:06.262Z,76556.41
2023-02-02T00:48:33.554Z,76544.25
2023-02-02T00:51:02.358Z,76544.25
2023-02-02T00:53:30.320Z,76536.13
2023-02-02T00:55:57.240Z,76546.28
2023-02-02T00:58:24.404Z,76548.31
2023-02-02T01:00:52.181Z,76552.34
2023-02-02T01:03:19.450Z,76548.31
2023-02-02T01:05:46.467Z,76552.34
2023-02-02T01:08:13.735Z,76558.44
2023-02-02T01:10:40.696Z,76568.56
2023-02-02T01:13:07.958Z,76576.69
2023-02-02T01:15:34.844Z,76594.91
2023-02-02T01:18:02.016Z,76609.09
2023-02-02T01:20:29.492Z,76649.66
2023-02-02T01:22:56.765Z,76667.91
2023-02-02T01:25:24.142Z,76690.19
2023-02-02T01:27:51.512Z,76706.41
2023-02-02T01:30:18.453Z,76726.69
2023-02-02T01:32:45.606Z,76734.78
2023-02-02T01:35:12.662Z,76734.78
2023-02-02T01:37:39.925Z,76730.75
2023-02-02T01:40:07.739Z,76730.75
2023-02-02T01:42:34.900Z,76730.75
2023-02-02T01:45:13.798Z,76726.69
2023-02-02T01:47:49.010Z,76738.84
2023-02-02T01:50:17.237Z,76724.66
2023-02-02T01:52:49.188Z,76722.63
2023-02-02T01:55:19.002Z,76722.63
2023-02-02T01:57:49.323Z,76714.53
2023-02-02T02:00:24.917Z,76708.44
2023-02-02T02:02:57.603Z,76700.34
2023-02-02T02:05:30.185Z,76698.31
2023-02-02T02:08:04.070Z,76690.19
2023-02-02T02:10:31.189Z,76686.13
2023-02-02T02:12:59.328Z,76686.13
2023-02-02T02:15:56.071Z,76673.97
2023-02-02T02:18:40.554Z,76665.88
2023-02-02T02:21:38.298Z,76653.72
2023-02-02T02:25:00.579Z,76657.75
2023-02-02T02:27:52.114Z,76633.44
2023-02-02T02:30:57.130Z,76633.44
2023-02-02T02:33:27.467Z,76633.44
2023-02-02T02:36:10.762Z,76625.31
2023-02-02T02:38:43.449Z,76629.38
2023-02-02T02:41:17.800Z,76625.31
2023-02-02T02:43:51.384Z,76633.44
2023-02-02T02:46:19.795Z,76633.44
2023-02-02T02:48:46.769Z,76633.44
2023-02-02T02:51:39.057Z,76645.59
2023-02-02T02:54:06.510Z,76649.66
2023-02-02T02:56:45.302Z,76655.72
2023-02-02T02:59:39.453Z,76665.88
2023-02-02T03:02:43.687Z,76673.97
2023-02-02T03:05:32.051Z,76669.94
2023-02-02T03:08:09.913Z,76657.75
2023-02-02T03:10:40.979Z,76661.81
2023-02-02T03:13:12.475Z,76645.59
2023-02-02T03:15:46.755Z,76649.66
2023-02-02T03:18:16.996Z,76625.31
2023-02-02T03:20:45.698Z,76619.25
2023-02-02T03:23:13.387Z,76613.16
2023-02-02T03:25:40.394Z,76613.16
2023-02-02T03:28:07.862Z,76605.06
2023-02-02T03:30:35.511Z,76596.94
2023-02-02T03:33:03.589Z,76572.63
2023-02-02T03:35:31.247Z,76588.84
2023-02-02T03:37:58.743Z,76584.78
2023-02-02T03:40:26.164Z,76584.78
2023-02-02T03:42:53.383Z,76576.69
2023-02-02T03:45:20.333Z,76572.63
2023-02-02T03:47:47.690Z,76560.47
2023-02-02T03:50:15.015Z,76558.44
2023-02-02T03:52:42.225Z,76560.47
2023-02-02T03:55:09.273Z,76568.56
2023-02-02T03:57:36.521Z,76562.50
2023-02-02T04:00:04.626Z,76556.41
2023-02-02T04:02:39.677Z,76548.31
2023-02-02T04:05:06.754Z,76552.34
2023-02-02T04:07:34.015Z,76552.34
2023-02-02T04:10:00.900Z,76552.34
2023-02-02T04:12:28.025Z,76548.31
2023-02-02T04:14:54.894Z,76552.34
2023-02-02T04:17:21.996Z,76568.56
2023-02-02T04:19:48.904Z,76550.31
2023-02-02T04:22:16.087Z,76552.34
2023-02-02T04:24:42.985Z,76552.34
2023-02-02T04:27:10.382Z,76544.25
2023-02-02T04:29:37.427Z,76544.25
2023-02-02T04:32:04.893Z,76548.31
2023-02-02T04:34:31.932Z,76538.16
2023-02-02T04:36:59.180Z,76532.09
2023-02-02T04:39:26.142Z,76540.19
2023-02-02T04:41:53.251Z,76548.31
2023-02-02T04:44:20.291Z,76540.19
2023-02-02T04:46:47.420Z,76548.31
2023-02-02T04:49:14.303Z,76544.25
2023-02-02T04:51:41.613Z,76544.25
2023-02-02T04:54:08.536Z,76544.25
2023-02-02T04:56:35.773Z,76548.31
2023-02-02T04:59:02.698Z,76552.34
2023-02-02T05:01:30.925Z,76536.13
2023-02-02T05:03:58.085Z,76548.31
2023-02-02T05:06:26.404Z,76556.41
2023-02-02T05:08:53.264Z,76556.41
2023-02-02T05:11:23.590Z,76556.41
2023-02-02T05:13:52.967Z,76560.47
2023-02-02T05:16:21.092Z,76560.47
2023-02-02T05:18:57.032Z,76560.47
2023-02-02T05:21:24.267Z,76544.25
2023-02-02T05:23:51.256Z,76544.25
2023-02-02T05:26:22.396Z,76546.28
2023-02-02T05:28:49.830Z,76552.34
2023-02-02T05:31:17.142Z,76548.31
2023-02-02T05:33:44.190Z,76546.28
2023-02-02T05:36:11.665Z,76548.31
2023-02-02T05:38:38.949Z,76552.34
2023-02-02T05:41:06.115Z,76556.41
2023-02-02T05:43:33.999Z,76548.31
2023-02-02T05:46:01.960Z,76546.28
2023-02-02T05:48:29.029Z,76560.47
2023-02-02T05:51:19.005Z,76556.41
2023-02-02T05:53:46.221Z,76556.41
2023-02-02T05:56:15.741Z,76542.22
2023-02-02T05:58:44.504Z,76552.34
2023-02-02T06:01:11.795Z,76552.34
2023-02-02T06:03:38.848Z,76556.41
2023-02-02T06:06:07.157Z,76560.47
2023-02-02T06:08:35.447Z,76556.41
2023-02-02T06:11:14.106Z,76564.50
2023-02-02T06:13:41.422Z,76548.31
2023-02-02T06:16:09.216Z,76552.34
2023-02-02T06:18:37.215Z,76548.31
2023-02-02T06:21:06.160Z,76544.25
2023-02-02T06:23:34.291Z,76536.13
2023-02-02T06:26:04.643Z,76532.09
2023-02-02T06:28:31.958Z,76536.13
2023-02-02T06:31:07.183Z,76532.09
2023-02-02T06:33:34.558Z,76528.03
2023-02-02T06:36:03.360Z,76528.03
2023-02-02T06:38:30.449Z,76511.81
2023-02-02T06:41:01.863Z,76519.91
2023-02-02T06:43:31.377Z,76519.91
2023-02-02T06:45:58.917Z,76511.81
2023-02-02T06:48:26.816Z,76517.88
2023-02-02T06:50:54.329Z,76519.91
2023-02-02T06:53:23.867Z,76523.97
2023-02-02T06:56:00.510Z,76511.81
2023-02-02T06:58:28.664Z,76511.81
2023-02-02T07:00:56.109Z,76511.81
2023-02-02T07:03:23.113Z,76511.81
2023-02-02T07:05:50.503Z,76511.81
2023-02-02T07:08:17.608Z,76511.81
2023-02-02T07:11:12.874Z,76519.91
2023-02-02T07:13:31.903Z,76519.91
2023-02-02T07:15:59.156Z,76519.91
2023-02-02T07:18:26.215Z,76519.91
2023-02-02T07:20:53.420Z,76519.91
2023-02-02T07:23:20.331Z,76507.75
2023-02-02T07:25:47.538Z,76507.75
2023-02-02T07:28:14.420Z,76507.75
2023-02-02T07:30:41.643Z,76509.78
2023-02-02T07:33:08.636Z,76501.69
2023-02-02T07:35:36.109Z,76499.66
2023-02-02T07:38:03.221Z,76495.59
2023-02-02T07:40:30.417Z,76503.69
2023-02-02T07:43:00.598Z,76513.84
2023-02-02T07:45:28.393Z,76511.81
2023-02-02T07:47:59.224Z,76499.66
2023-02-02T07:50:28.360Z,76503.69
2023-02-02T07:52:55.754Z,76499.66
2023-02-02T07:55:23.329Z,76495.59
2023-02-02T07:57:54.391Z,76491.53
2023-02-02T08:00:22.181Z,76495.59
2023-02-02T08:02:49.755Z,76501.69
2023-02-02T08:05:17.405Z,76503.69
2023-02-02T08:07:48.307Z,76503.69
2023-02-02T08:10:15.595Z,76511.81
2023-02-02T08:12:42.567Z,76503.69
2023-02-02T08:15:12.875Z,76511.81
2023-02-02T08:17:40.034Z,76515.88
2023-02-02T08:20:07.693Z,76507.75
2023-02-02T08:22:34.841Z,76511.81
2023-02-02T08:25:02.004Z,76515.88
2023-02-02T08:27:29.141Z,76523.97
2023-02-02T08:29:56.607Z,76536.13
2023-02-02T08:32:23.476Z,76540.19
2023-02-02T08:34:52.007Z,76546.28
2023-02-02T08:37:19.235Z,76554.38
2023-02-02T08:39:46.556Z,76564.50
2023-02-02T08:42:13.530Z,76562.50
2023-02-02T08:45:00.710Z,76560.47
2023-02-02T08:47:29.963Z,76556.41
2023-02-02T08:54:21.420Z,76568.56
2023-02-02T08:56:48.397Z,76570.59
2023-02-02T08:59:16.502Z,76572.63
2023-02-02T09:01:43.416Z,76568.56
2023-02-02T09:04:16.229Z,76572.63
2023-02-02T09:06:43.379Z,76566.53
2023-02-02T09:09:14.470Z,76564.50
2023-02-02T09:11:42.064Z,76564.50
2023-02-02T09:14:11.794Z,76564.50
2023-02-02T09:16:39.229Z,76576.69
2023-02-02T09:19:06.574Z,76552.34
2023-02-02T09:21:37.515Z,76560.47
2023-02-02T09:24:10.409Z,76566.53
2023-02-02T09:26:40.360Z,76556.41
2023-02-02T09:29:11.158Z,76546.28
2023-02-02T09:31:39.155Z,76556.41
2023-02-02T09:34:12.035Z,76552.34
2023-02-02T09:36:40.573Z,76538.16
2023-02-02T09:39:08.415Z,76526.00
2023-02-02T09:41:38.512Z,76523.97
2023-02-02T09:44:24.273Z,76519.91
2023-02-02T09:47:03.243Z,76552.34
2023-02-02T09:50:09.073Z,76540.19
2023-02-02T09:52:47.494Z,76544.25
2023-02-02T09:55:40.209Z,76556.41
2023-02-02T09:58:18.222Z,76568.56
2023-02-02T10:00:54.048Z,76580.72
2023-02-02T10:03:27.399Z,76580.72
2023-02-02T10:06:02.720Z,76584.78
2023-02-02T10:08:49.104Z,76584.78
2023-02-02T10:11:30.875Z,76578.69
2023-02-02T10:14:04.869Z,76596.94
2023-02-02T10:16:35.297Z,76611.13
2023-02-02T10:19:11.988Z,76605.06
2023-02-02T10:21:54.914Z,76590.88
2023-02-02T10:24:25.122Z,76584.78
2023-02-02T10:26:58.184Z,76580.72
2023-02-02T10:29:48.385Z,76576.69
2023-02-02T10:32:34.866Z,76576.69
2023-02-02T10:35:37.221Z,76572.63
2023-02-02T10:38:10.650Z,76572.63
2023-02-02T10:40:56.206Z,76576.69
2023-02-02T10:43:59.977Z,76578.69
2023-02-02T10:46:47.640Z,76572.63
2023-02-02T10:49:31.100Z,76576.69
2023-02-02T10:52:02.954Z,76576.69
2023-02-02T10:54:55.855Z,76572.63
2023-02-02T10:57:53.129Z,76592.91
2023-02-02T11:00:32.912Z,76605.06
2023-02-02T11:03:04.530Z,76601.00
2023-02-02T11:05:51.962Z,76629.38
2023-02-02T11:08:18.860Z,76633.44
2023-02-02T11:10:49.758Z,76645.59
2023-02-02T11:13:46.704Z,76651.69
2023-02-02T11:16:16.883Z,76665.88
2023-02-02T11:18:45.097Z,76665.88
2023-02-02T11:21:24.022Z,76686.13
2023-02-02T11:24:02.993Z,76704.38
2023-02-02T11:26:51.833Z,76712.50
2023-02-02T11:29:26.946Z,76710.47
2023-02-02T11:31:54.246Z,76710.47
2023-02-02T11:34:27.498Z,76698.31
2023-02-02T11:37:13.396Z,76682.09
2023-02-02T11:39:42.424Z,76678.03
2023-02-02T11:42:19.909Z,76671.94
2023-02-02T11:44:57.054Z,76665.88
2023-02-02T11:47:33.245Z,76673.97
2023-02-02T11:50:02.205Z,76665.88
2023-02-02T11:52:33.158Z,76673.97
2023-02-02T11:55:09.239Z,76669.94
2023-02-02T11:57:36.948Z,76673.97
2023-02-02T12:00:09.930Z,76669.94
2023-02-02T12:02:37.565Z,76673.97
2023-02-02T12:05:10.619Z,76661.81
2023-02-02T12:07:37.986Z,76645.59
2023-02-02T12:10:13.015Z,76645.59
2023-02-02T12:13:24.681Z,76641.53
2023-02-02T12:16:07.743Z,76641.53
2023-02-02T12:18:53.431Z,76637.50
2023-02-02T12:21:46.713Z,76645.59
2023-02-02T12:24:24.847Z,76657.75
2023-02-02T12:27:13.593Z,76669.94
2023-02-02T12:29:54.523Z,76669.94
2023-02-02T12:32:36.587Z,76678.03
2023-02-02T12:35:30.454Z,76678.03
2023-02-02T12:38:24.975Z,76678.03
2023-02-02T12:41:23.945Z,76694.25
2023-02-02T12:44:02.436Z,76718.56
2023-02-02T12:46:41.781Z,76726.69
2023-02-02T12:49:35.214Z,76728.72
2023-02-02T12:52:39.687Z,76732.75
2023-02-02T12:55:42.326Z,76746.97
2023-02-02T12:58:36.834Z,76759.13
2023-02-02T13:01:38.917Z,76783.44
2023-02-02T13:07:34.751Z,76807.78
2023-02-02T13:10:18.675Z,76817.91
2023-02-02T13:12:55.308Z,76832.09
2023-02-02T13:15:31.826Z,76836.16
2023-02-02T13:18:02.328Z,76852.38
2023-02-02T13:20:49.544Z,76850.34
2023-02-02T13:23:27.842Z,76860.47
2023-02-02T13:26:04.666Z,76856.44
2023-02-02T13:29:02.889Z,76864.53
2023-02-02T13:31:47.571Z,76864.53
2023-02-02T13:34:29.066Z,76892.91
2023-02-02T13:37:43.255Z,76884.81
2023-02-02T13:40:32.639Z,76880.75
2023-02-02T13:43:18.424Z,76882.78
2023-02-02T13:45:48.112Z,76880.75
2023-02-02T13:48:30.013Z,76880.75
2023-02-02T13:51:02.718Z,76868.59
2023-02-02T13:53:48.370Z,76864.53
2023-02-02T13:56:49.617Z,76872.66
2023-02-02T13:59:45.792Z,76882.78
2023-02-02T14:02:27.060Z,76884.81
2023-02-02T14:04:57.954Z,76880.75
2023-02-02T14:07:42.485Z,76880.75
2023-02-02T14:10:31.734Z,76876.69
2023-02-02T14:13:32.326Z,76872.66
2023-02-02T14:16:06.090Z,76878.72
2023-02-02T14:18:51.068Z,76872.66
2023-02-02T14:21:36.004Z,76872.66
2023-02-02T14:24:04.427Z,76890.88
2023-02-02T14:26:40.570Z,76892.91
2023-02-02T14:29:31.943Z,76901.03
2023-02-02T14:32:00.597Z,76907.09
2023-02-02T14:34:45.789Z,76921.31
2023-02-02T14:37:26.394Z,76929.41
2023-02-02T14:40:12.632Z,76933.47
2023-02-02T14:43:20.399Z,76917.25
2023-02-02T14:45:50.162Z,76925.34
2023-02-02T14:48:21.580Z,76929.41
2023-02-02T14:51:01.115Z,76929.41
2023-02-02T14:53:40.414Z,76951.72
2023-02-02T14:56:13.443Z,76957.78
2023-02-02T14:58:46.018Z,76947.66
2023-02-02T15:01:25.203Z,76969.94
2023-02-02T15:03:56.781Z,76974.00
2023-02-02T15:06:32.285Z,76986.16
2023-02-02T15:09:27.378Z,76992.25
2023-02-02T15:12:03.723Z,77002.41
2023-02-02T15:14:58.282Z,77006.44
2023-02-02T15:17:40.618Z,77018.63
2023-02-02T15:20:26.735Z,77028.75
2023-02-02T15:23:07.653Z,77047.00
2023-02-02T15:25:34.885Z,77049.03
2023-02-02T15:28:26.500Z,77051.06
2023-02-02T15:31:06.073Z,77085.50
2023-02-02T15:33:42.135Z,77115.94
2023-02-02T15:36:16.185Z,77164.59
2023-02-02T15:38:43.736Z,77217.28
2023-02-02T15:41:23.241Z,77294.34
2023-02-02T15:43:51.615Z,77326.78
2023-02-02T15:46:24.933Z,77326.78
2023-02-02T15:49:33.643Z,77343.00
2023-02-02T15:52:12.956Z,77334.91
2023-02-02T15:54:56.250Z,77328.81
2023-02-02T15:57:32.833Z,77310.56
2023-02-02T16:00:02.583Z,77310.56
2023-02-02T16:02:43.090Z,77320.69
2023-02-02T16:05:31.295Z,77326.78
2023-02-02T16:08:07.523Z,77334.91
2023-02-02T16:10:35.667Z,77343.00
2023-02-02T16:13:03.638Z,77351.13
2023-02-02T16:15:34.158Z,77359.22
2023-02-02T16:18:08.064Z,77367.34
2023-02-02T16:20:38.367Z,77363.28
2023-02-02T16:23:12.763Z,77359.22
2023-02-02T16:25:50.311Z,77359.22
2023-02-02T16:28:20.379Z,77357.19
2023-02-02T16:30:48.299Z,77355.16
2023-02-02T16:33:36.295Z,77363.28
2023-02-02T16:36:24.388Z,77375.44
2023-02-02T16:38:54.261Z,77371.38
2023-02-02T16:41:34.801Z,77363.28
2023-02-02T16:44:39.653Z,77375.44
2023-02-02T16:47:12.845Z,77379.50
2023-02-02T16:49:40.092Z,77381.53
2023-02-02T16:52:11.791Z,77383.56
2023-02-02T16:54:49.510Z,77383.56
2023-02-02T16:57:20.450Z,77391.66
2023-02-02T16:59:51.682Z,77387.59
2023-02-02T17:02:31.662Z,77389.63
2023-02-02T17:05:02.661Z,77383.56
2023-02-02T17:07:32.490Z,77399.78
2023-02-02T17:10:24.908Z,77403.84
2023-02-02T17:12:52.434Z,77403.84
2023-02-02T17:15:19.691Z,77411.94
2023-02-02T17:17:48.676Z,77416.00
2023-02-02T17:20:17.295Z,77416.00
2023-02-02T17:22:48.375Z,77413.97
2023-02-02T17:25:42.048Z,77424.09
2023-02-02T17:28:16.195Z,77426.13
2023-02-02T17:30:45.682Z,77432.22
2023-02-02T17:33:17.280Z,77440.31
2023-02-02T17:35:55.842Z,77448.44
2023-02-02T17:38:24.784Z,77432.22
2023-02-02T17:40:53.013Z,77452.50
2023-02-02T17:43:20.052Z,77456.53
2023-02-02T17:45:47.683Z,77460.59
2023-02-02T17:48:14.935Z,77460.59
2023-02-02T17:50:43.395Z,77460.59
2023-02-02T17:53:13.423Z,77464.66
2023-02-02T17:55:42.867Z,77468.72
2023-02-02T17:58:13.193Z,77470.75
2023-02-02T18:00:41.839Z,77470.75
2023-02-02T18:03:19.409Z,77468.72
2023-02-02T18:05:46.769Z,77489.00
2023-02-02T18:08:14.112Z,77495.06
2023-02-02T18:10:42.292Z,77517.38
2023-02-02T18:13:17.495Z,77509.25
2023-02-02T18:15:45.214Z,77513.31
2023-02-02T18:18:12.690Z,77513.31
2023-02-02T18:20:48.103Z,77513.31
2023-02-02T18:23:16.419Z,77513.31
2023-02-02T18:25:45.325Z,77521.44
2023-02-02T18:28:16.742Z,77525.47
2023-02-02T18:30:45.633Z,77521.44
2023-02-02T18:33:14.032Z,77529.53
2023-02-02T18:35:45.414Z,77533.59
2023-02-02T18:38:13.185Z,77547.78
2023-02-02T18:40:40.456Z,77545.75
2023-02-02T18:43:07.563Z,77535.63
2023-02-02T18:45:35.873Z,77543.72
2023-02-02T18:48:02.996Z,77549.81
2023-02-02T18:50:30.358Z,77553.88
2023-02-02T18:52:57.675Z,77549.81
2023-02-02T18:55:25.591Z,77553.88
2023-02-02T18:57:52.809Z,77553.88
2023-02-02T19:00:22.057Z,77553.88
2023-02-02T19:02:49.463Z,77561.97
2023-02-02T19:05:35.746Z,77570.09
2023-02-02T19:08:04.262Z,77590.38
2023-02-02T19:10:31.744Z,77602.53
2023-02-02T19:13:11.663Z,77606.59
2023-02-02T19:15:42.301Z,77610.66
2023-02-02T19:18:17.941Z,77602.53
2023-02-02T19:20:46.496Z,77618.75
2023-02-02T19:23:16.460Z,77618.75
2023-02-02T19:25:47.062Z,77630.94
2023-02-02T19:28:26.470Z,77639.03
2023-02-02T19:30:56.392Z,77639.03
2023-02-02T19:33:47.333Z,77647.16
2023-02-02T19:36:27.887Z,77655.25
2023-02-02T19:39:16.970Z,77655.25
2023-02-02T19:41:44.458Z,77667.44
2023-02-02T19:44:22.904Z,77665.41
2023-02-02T19:46:52.771Z,77685.69
2023-02-02T19:49:24.898Z,77691.75
2023-02-02T19:51:54.924Z,77691.75
2023-02-02T19:54:37.835Z,77699.88
2023-02-02T19:57:21.074Z,77705.94
2023-02-02T19:59:50.476Z,77699.88
2023-02-02T20:02:23.736Z,77712.03
2023-02-02T20:05:02.257Z,77720.16
2023-02-02T20:07:30.096Z,77740.44
2023-02-02T20:10:11.299Z,77740.44
2023-02-02T20:12:38.477Z,77748.53
2023-02-02T20:15:33.335Z,77752.59
2023-02-02T20:18:03.590Z,77756.66
2023-02-02T20:20:43.135Z,77758.69
2023-02-02T20:23:25.524Z,77754.63
2023-02-02T20:25:52.612Z,77768.81
2023-02-02T20:28:32.372Z,77766.78
2023-02-02T20:30:59.345Z,77789.09
2023-02-02T20:33:27.455Z,77783.00
2023-02-02T20:35:55.218Z,77780.97
2023-02-02T20:38:28.593Z,77789.09
2023-02-02T20:40:56.729Z,77789.09
2023-02-02T20:43:23.939Z,77797.19
2023-02-02T20:45:51.671Z,77785.03
2023-02-02T20:48:18.995Z,77809.38
2023-02-02T20:50:46.935Z,77813.44
2023-02-02T20:53:16.533Z,77813.44
2023-02-02T20:55:44.660Z,77833.69
2023-02-02T20:58:12.485Z,77839.78
2023-02-02T21:00:39.710Z,77849.94
2023-02-02T21:03:06.927Z,77860.06
2023-02-02T21:05:33.959Z,77872.22
2023-02-02T21:08:01.253Z,77872.22
2023-02-02T21:10:28.431Z,77870.22
2023-02-02T21:12:55.970Z,77872.22
2023-02-02T21:15:23.550Z,77880.34
2023-02-02T21:17:50.766Z,77874.25
2023-02-02T21:20:18.578Z,77890.47
2023-02-02T21:22:46.584Z,77898.59
2023-02-02T21:25:13.502Z,77910.75
2023-02-02T21:27:41.462Z,77902.66
2023-02-02T21:30:12.641Z,77914.81
2023-02-02T21:32:39.790Z,77914.81
2023-02-02T21:35:07.031Z,77922.94
2023-02-02T21:37:35.991Z,77935.09
2023-02-02T21:40:12.803Z,77935.09
2023-02-02T21:42:47.233Z,77929.00
2023-02-02T21:45:20.430Z,77951.31
2023-02-02T21:47:54.534Z,77941.19
2023-02-02T21:50:28.395Z,77951.31
2023-02-02T21:53:10.568Z,77963.50
2023-02-02T21:55:38.838Z,77967.53
2023-02-02T21:58:26.077Z,77973.63
2023-02-02T22:00:59.993Z,77975.66
2023-02-02T22:03:35.225Z,77979.72
2023-02-02T22:06:35.488Z,77981.75
2023-02-02T22:09:12.643Z,77987.81
2023-02-02T22:11:44.699Z,77979.72
2023-02-02T22:14:32.877Z,77971.59
2023-02-02T22:17:00.280Z,77979.72
2023-02-02T22:19:35.595Z,77971.59
2023-02-02T22:22:08.563Z,77979.72
2023-02-02T22:24:36.511Z,77991.88
2023-02-02T22:27:03.585Z,77989.84
2023-02-02T22:29:35.465Z,77989.84
2023-02-02T22:32:02.625Z,77991.88
2023-02-02T22:34:29.889Z,77997.97
2023-02-02T22:36:56.905Z,78006.06
2023-02-02T22:39:24.153Z,78016.22
2023-02-02T22:41:51.039Z,78020.28
2023-02-02T22:44:18.197Z,78024.31
2023-02-02T22:46:45.259Z,78020.28
2023-02-02T22:49:12.492Z,78036.50
2023-02-02T22:51:39.444Z,78048.66
2023-02-02T22:54:06.636Z,78052.72
2023-02-02T22:56:33.526Z,78048.66
2023-02-02T22:59:01.630Z,78044.59
2023-02-02T23:01:28.499Z,78032.44
2023-02-02T23:03:55.776Z,78056.78
2023-02-02T23:06:22.672Z,78048.66
2023-02-02T23:08:49.937Z,78058.81
2023-02-02T23:11:16.929Z,78052.72
2023-02-02T23:13:44.086Z,78056.78
2023-02-02T23:16:11.339Z,78064.88
2023-02-02T23:18:38.641Z,78064.88
2023-02-02T23:21:05.735Z,78068.94
2023-02-02T23:23:32.952Z,78089.22
2023-02-02T23:25:59.880Z,78077.06
2023-02-02T23:28:27.166Z,78081.09
2023-02-02T23:30:54.791Z,78068.94
2023-02-02T23:33:22.785Z,78073.00
2023-02-02T23:35:50.164Z,78060.81
2023-02-02T23:38:17.941Z,78040.56
2023-02-02T23:40:44.896Z,78052.72
2023-02-02T23:43:12.030Z,78052.72
2023-02-02T23:45:39.611Z,78052.72
2023-02-02T23:48:07.765Z,78044.59
2023-02-02T23:50:38.594Z,78056.78
2023-02-02T23:53:07.422Z,78073.00
2023-02-02T23:55:34.540Z,78064.88
2023-02-02T23:58:02.375Z,78052.72
